sensor_id;sensor_type;location;lat;lon;timestamp;temperature;humidity
71627;DHT22;59475;52.464;13.590;2023-06-10T00:00:45;16.07;82.87
71627;DHT22;59475;52.464;13.590;2023-06-10T00:03:11;16.04;82.92
71627;DHT22;59475;52.464;13.590;2023-06-10T00:05:38;16.03;83.04
71627;DHT22;59475;52.464;13.590;2023-06-10T00:08:05;16.06;83.02
71627;DHT22;59475;52.464;13.590;2023-06-10T00:10:37;15.97;83.27
71627;DHT22;59475;52.464;13.590;2023-06-10T00:13:04;15.91;83.50
71627;DHT22;59475;52.464;13.590;2023-06-10T00:15:30;15.89;83.74
71627;DHT22;59475;52.464;13.590;2023-06-10T00:17:56;15.86;83.68
71627;DHT22;59475;52.464;13.590;2023-06-10T00:20:21;15.85;83.81
71627;DHT22;59475;52.464;13.590;2023-06-10T00:22:49;15.83;83.94
71627;DHT22;59475;52.464;13.590;2023-06-10T00:25:15;15.80;84.04
71627;DHT22;59475;52.464;13.590;2023-06-10T00:27:40;15.73;84.11
71627;DHT22;59475;52.464;13.590;2023-06-10T00:30:06;15.74;84.30
71627;DHT22;59475;52.464;13.590;2023-06-10T00:32:36;15.69;84.40
71627;DHT22;59475;52.464;13.590;2023-06-10T00:35:06;15.67;84.48
71627;DHT22;59475;52.464;13.590;2023-06-10T00:37:32;15.69;84.48
71627;DHT22;59475;52.464;13.590;2023-06-10T00:40:00;15.63;84.64
71627;DHT22;59475;52.464;13.590;2023-06-10T00:42:25;15.59;84.77
71627;DHT22;59475;52.464;13.590;2023-06-10T00:44:51;15.62;84.62
71627;DHT22;59475;52.464;13.590;2023-06-10T00:47:17;15.53;85.00
71627;DHT22;59475;52.464;13.590;2023-06-10T00:49:43;15.49;85.12
71627;DHT22;59475;52.464;13.590;2023-06-10T00:52:08;15.44;85.36
71627;DHT22;59475;52.464;13.590;2023-06-10T00:54:36;15.44;85.40
71627;DHT22;59475;52.464;13.590;2023-06-10T00:57:02;15.39;85.50
71627;DHT22;59475;52.464;13.590;2023-06-10T00:59:28;15.34;85.80
71627;DHT22;59475;52.464;13.590;2023-06-10T01:01:55;15.28;86.09
71627;DHT22;59475;52.464;13.590;2023-06-10T01:04:21;15.24;86.09
71627;DHT22;59475;52.464;13.590;2023-06-10T01:12:43;15.15;86.44
71627;DHT22;59475;52.464;13.590;2023-06-10T01:15:15;15.08;86.61
71627;DHT22;59475;52.464;13.590;2023-06-10T01:18:02;15.11;86.55
71627;DHT22;59475;52.464;13.590;2023-06-10T01:20:29;15.10;86.70
71627;DHT22;59475;52.464;13.590;2023-06-10T01:22:55;15.04;86.88
71627;DHT22;59475;52.464;13.590;2023-06-10T01:25:24;15.01;86.82
71627;DHT22;59475;52.464;13.590;2023-06-10T01:33:25;14.94;87.19
71627;DHT22;59475;52.464;13.590;2023-06-10T01:35:53;14.91;87.28
71627;DHT22;59475;52.464;13.590;2023-06-10T01:38:19;14.93;87.36
71627;DHT22;59475;52.464;13.590;2023-06-10T01:40:46;14.91;87.34
71627;DHT22;59475;52.464;13.590;2023-06-10T01:43:13;14.84;87.58
71627;DHT22;59475;52.464;13.590;2023-06-10T01:45:38;14.81;87.69
71627;DHT22;59475;52.464;13.590;2023-06-10T01:48:05;14.79;87.77
71627;DHT22;59475;52.464;13.590;2023-06-10T01:50:30;14.77;87.81
71627;DHT22;59475;52.464;13.590;2023-06-10T01:52:57;14.79;87.79
71627;DHT22;59475;52.464;13.590;2023-06-10T01:55:23;14.73;87.98
71627;DHT22;59475;52.464;13.590;2023-06-10T01:57:48;14.75;88.01
71627;DHT22;59475;52.464;13.590;2023-06-10T02:00:14;14.69;88.20
71627;DHT22;59475;52.464;13.590;2023-06-10T02:02:39;14.68;88.23
71627;DHT22;59475;52.464;13.590;2023-06-10T02:05:05;14.65;88.29
71627;DHT22;59475;52.464;13.590;2023-06-10T02:07:31;14.65;88.33
71627;DHT22;59475;52.464;13.590;2023-06-10T02:09:56;14.62;88.35
71627;DHT22;59475;52.464;13.590;2023-06-10T02:12:21;14.60;88.43
71627;DHT22;59475;52.464;13.590;2023-06-10T02:14:47;14.58;88.60
71627;DHT22;59475;52.464;13.590;2023-06-10T02:17:12;14.55;88.85
71627;DHT22;59475;52.464;13.590;2023-06-10T02:19:40;14.49;89.00
71627;DHT22;59475;52.464;13.590;2023-06-10T02:22:08;14.46;89.07
71627;DHT22;59475;52.464;13.590;2023-06-10T02:24:36;14.46;89.11
71627;DHT22;59475;52.464;13.590;2023-06-10T02:27:03;14.43;89.04
71627;DHT22;59475;52.464;13.590;2023-06-10T02:29:29;14.39;89.17
71627;DHT22;59475;52.464;13.590;2023-06-10T02:31:54;14.39;89.34
71627;DHT22;59475;52.464;13.590;2023-06-10T02:34:20;14.36;89.24
71627;DHT22;59475;52.464;13.590;2023-06-10T02:36:45;14.39;89.22
71627;DHT22;59475;52.464;13.590;2023-06-10T02:39:11;14.38;89.31
71627;DHT22;59475;52.464;13.590;2023-06-10T02:41:36;14.35;89.37
71627;DHT22;59475;52.464;13.590;2023-06-10T02:44:03;14.29;89.45
71627;DHT22;59475;52.464;13.590;2023-06-10T02:46:28;14.36;89.35
71627;DHT22;59475;52.464;13.590;2023-06-10T02:48:54;14.33;89.43
71627;DHT22;59475;52.464;13.590;2023-06-10T02:51:19;14.31;89.53
71627;DHT22;59475;52.464;13.590;2023-06-10T02:53:46;14.29;89.60
71627;DHT22;59475;52.464;13.590;2023-06-10T02:56:11;14.31;89.60
71627;DHT22;59475;52.464;13.590;2023-06-10T02:58:37;14.24;89.75
71627;DHT22;59475;52.464;13.590;2023-06-10T03:01:03;14.25;89.74
71627;DHT22;59475;52.464;13.590;2023-06-10T03:03:28;14.21;89.85
71627;DHT22;59475;52.464;13.590;2023-06-10T03:05:55;14.22;89.95
71627;DHT22;59475;52.464;13.590;2023-06-10T03:08:21;14.21;89.87
71627;DHT22;59475;52.464;13.590;2023-06-10T03:10:47;14.21;89.85
71627;DHT22;59475;52.464;13.590;2023-06-10T03:13:12;14.24;89.79
71627;DHT22;59475;52.464;13.590;2023-06-10T03:15:39;14.20;89.99
71627;DHT22;59475;52.464;13.590;2023-06-10T03:18:06;14.17;90.15
71627;DHT22;59475;52.464;13.590;2023-06-10T03:20:31;14.18;90.05
71627;DHT22;59475;52.464;13.590;2023-06-10T03:23:02;14.20;90.05
71627;DHT22;59475;52.464;13.590;2023-06-10T03:25:27;14.21;90.09
71627;DHT22;59475;52.464;13.590;2023-06-10T03:27:53;14.22;90.05
71627;DHT22;59475;52.464;13.590;2023-06-10T03:30:19;14.22;89.97
71627;DHT22;59475;52.464;13.590;2023-06-10T03:32:44;14.24;90.01
71627;DHT22;59475;52.464;13.590;2023-06-10T03:35:10;14.24;90.06
71627;DHT22;59475;52.464;13.590;2023-06-10T03:37:35;14.28;89.96
71627;DHT22;59475;52.464;13.590;2023-06-10T03:40:01;14.28;89.89
71627;DHT22;59475;52.464;13.590;2023-06-10T03:42:26;14.32;89.82
71627;DHT22;59475;52.464;13.590;2023-06-10T03:44:52;14.31;89.87
71627;DHT22;59475;52.464;13.590;2023-06-10T03:47:17;14.33;89.81
71627;DHT22;59475;52.464;13.590;2023-06-10T03:49:43;14.29;89.97
71627;DHT22;59475;52.464;13.590;2023-06-10T03:52:08;14.39;89.70
71627;DHT22;59475;52.464;13.590;2023-06-10T03:54:34;14.38;89.78
71627;DHT22;59475;52.464;13.590;2023-06-10T03:57:00;14.42;89.52
71627;DHT22;59475;52.464;13.590;2023-06-10T03:59:26;14.50;89.41
71627;DHT22;59475;52.464;13.590;2023-06-10T04:01:51;14.52;89.13
71627;DHT22;59475;52.464;13.590;2023-06-10T04:04:17;14.59;89.12
71627;DHT22;59475;52.464;13.590;2023-06-10T04:06:42;14.60;88.91
71627;DHT22;59475;52.464;13.590;2023-06-10T04:09:09;14.65;89.03
71627;DHT22;59475;52.464;13.590;2023-06-10T04:11:35;14.69;88.66
71627;DHT22;59475;52.464;13.590;2023-06-10T04:14:01;14.76;88.58
71627;DHT22;59475;52.464;13.590;2023-06-10T04:16:27;14.79;88.44
71627;DHT22;59475;52.464;13.590;2023-06-10T04:18:52;14.80;88.30
71627;DHT22;59475;52.464;13.590;2023-06-10T04:21:18;14.83;88.15
71627;DHT22;59475;52.464;13.590;2023-06-10T04:23:43;14.87;88.04
71627;DHT22;59475;52.464;13.590;2023-06-10T04:26:08;14.97;87.69
71627;DHT22;59475;52.464;13.590;2023-06-10T04:28:35;15.04;87.55
71627;DHT22;59475;52.464;13.590;2023-06-10T04:31:01;15.12;87.37
71627;DHT22;59475;52.464;13.590;2023-06-10T04:33:29;15.21;87.00
71627;DHT22;59475;52.464;13.590;2023-06-10T04:35:55;15.35;86.77
71627;DHT22;59475;52.464;13.590;2023-06-10T04:38:20;15.45;86.82
71627;DHT22;59475;52.464;13.590;2023-06-10T04:40:46;15.67;85.63
71627;DHT22;59475;52.464;13.590;2023-06-10T04:43:11;15.73;85.51
71627;DHT22;59475;52.464;13.590;2023-06-10T04:45:38;15.91;85.13
71627;DHT22;59475;52.464;13.590;2023-06-10T04:48:03;16.07;84.45
71627;DHT22;59475;52.464;13.590;2023-06-10T04:50:28;16.28;83.80
71627;DHT22;59475;52.464;13.590;2023-06-10T04:52:54;16.41;83.43
71627;DHT22;59475;52.464;13.590;2023-06-10T04:55:22;16.58;82.77
71627;DHT22;59475;52.464;13.590;2023-06-10T04:57:48;16.79;82.18
71627;DHT22;59475;52.464;13.590;2023-06-10T05:00:13;16.99;81.52
71627;DHT22;59475;52.464;13.590;2023-06-10T05:02:39;17.16;80.88
71627;DHT22;59475;52.464;13.590;2023-06-10T05:05:05;17.30;80.10
71627;DHT22;59475;52.464;13.590;2023-06-10T05:07:31;17.44;80.05
71627;DHT22;59475;52.464;13.590;2023-06-10T05:09:56;17.59;79.20
71627;DHT22;59475;52.464;13.590;2023-06-10T05:12:22;17.72;78.89
71627;DHT22;59475;52.464;13.590;2023-06-10T05:14:47;17.79;78.51
71627;DHT22;59475;52.464;13.590;2023-06-10T05:17:13;17.89;78.56
71627;DHT22;59475;52.464;13.590;2023-06-10T05:19:38;17.90;78.20
71627;DHT22;59475;52.464;13.590;2023-06-10T05:22:04;18.02;78.19
71627;DHT22;59475;52.464;13.590;2023-06-10T05:24:29;18.18;77.97
71627;DHT22;59475;52.464;13.590;2023-06-10T05:26:54;18.33;77.24
71627;DHT22;59475;52.464;13.590;2023-06-10T05:29:20;18.38;77.28
71627;DHT22;59475;52.464;13.590;2023-06-10T05:31:45;18.40;77.03
71627;DHT22;59475;52.464;13.590;2023-06-10T05:34:11;18.51;77.19
71627;DHT22;59475;52.464;13.590;2023-06-10T05:36:36;18.71;76.75
71627;DHT22;59475;52.464;13.590;2023-06-10T05:39:02;18.81;76.17
71627;DHT22;59475;52.464;13.590;2023-06-10T05:41:28;18.92;75.66
71627;DHT22;59475;52.464;13.590;2023-06-10T05:43:53;19.00;75.63
71627;DHT22;59475;52.464;13.590;2023-06-10T05:46:19;19.03;75.21
71627;DHT22;59475;52.464;13.590;2023-06-10T05:48:45;19.02;75.25
71627;DHT22;59475;52.464;13.590;2023-06-10T05:51:10;19.12;75.36
71627;DHT22;59475;52.464;13.590;2023-06-10T05:53:35;19.27;74.95
71627;DHT22;59475;52.464;13.590;2023-06-10T05:56:01;19.34;74.27
71627;DHT22;59475;52.464;13.590;2023-06-10T05:58:26;19.53;73.91
71627;DHT22;59475;52.464;13.590;2023-06-10T06:00:52;19.60;73.77
71627;DHT22;59475;52.464;13.590;2023-06-10T06:03:17;19.65;73.15
71627;DHT22;59475;52.464;13.590;2023-06-10T06:05:43;19.91;72.84
71627;DHT22;59475;52.464;13.590;2023-06-10T06:08:09;20.02;72.05
71627;DHT22;59475;52.464;13.590;2023-06-10T06:10:35;19.92;72.17
71627;DHT22;59475;52.464;13.590;2023-06-10T06:13:01;20.10;71.93
71627;DHT22;59475;52.464;13.590;2023-06-10T06:15:26;20.10;71.33
71627;DHT22;59475;52.464;13.590;2023-06-10T06:17:52;20.26;71.18
71627;DHT22;59475;52.464;13.590;2023-06-10T06:20:19;20.40;70.87
71627;DHT22;59475;52.464;13.590;2023-06-10T06:22:44;20.50;70.65
71627;DHT22;59475;52.464;13.590;2023-06-10T06:25:10;20.57;70.16
71627;DHT22;59475;52.464;13.590;2023-06-10T06:27:35;20.74;70.12
71627;DHT22;59475;52.464;13.590;2023-06-10T06:30:00;21.05;68.47
71627;DHT22;59475;52.464;13.590;2023-06-10T06:32:26;21.19;68.84
71627;DHT22;59475;52.464;13.590;2023-06-10T06:34:53;21.40;66.92
71627;DHT22;59475;52.464;13.590;2023-06-10T06:37:23;21.63;65.99
71627;DHT22;59475;52.464;13.590;2023-06-10T06:39:50;21.50;65.85
71627;DHT22;59475;52.464;13.590;2023-06-10T06:42:16;21.47;65.67
71627;DHT22;59475;52.464;13.590;2023-06-10T06:44:42;21.50;65.76
71627;DHT22;59475;52.464;13.590;2023-06-10T06:47:07;21.47;66.03
71627;DHT22;59475;52.464;13.590;2023-06-10T06:49:32;21.64;65.47
71627;DHT22;59475;52.464;13.590;2023-06-10T06:51:58;21.70;64.89
71627;DHT22;59475;52.464;13.590;2023-06-10T06:54:23;21.66;65.10
71627;DHT22;59475;52.464;13.590;2023-06-10T06:56:50;22.09;65.07
71627;DHT22;59475;52.464;13.590;2023-06-10T06:59:15;22.49;63.42
71627;DHT22;59475;52.464;13.590;2023-06-10T07:01:42;23.01;62.03
71627;DHT22;59475;52.464;13.590;2023-06-10T07:04:07;23.29;61.15
71627;DHT22;59475;52.464;13.590;2023-06-10T07:06:33;23.44;60.43
71627;DHT22;59475;52.464;13.590;2023-06-10T07:08:58;23.79;59.49
71627;DHT22;59475;52.464;13.590;2023-06-10T07:11:23;24.38;57.64
71627;DHT22;59475;52.464;13.590;2023-06-10T07:13:49;24.76;57.07
71627;DHT22;59475;52.464;13.590;2023-06-10T07:16:14;25.06;55.75
71627;DHT22;59475;52.464;13.590;2023-06-10T07:18:40;25.45;55.02
71627;DHT22;59475;52.464;13.590;2023-06-10T07:21:05;25.47;54.87
71627;DHT22;59475;52.464;13.590;2023-06-10T07:23:30;25.54;54.85
71627;DHT22;59475;52.464;13.590;2023-06-10T07:25:56;25.88;53.54
71627;DHT22;59475;52.464;13.590;2023-06-10T07:28:21;26.29;52.53
71627;DHT22;59475;52.464;13.590;2023-06-10T07:30:46;26.65;52.04
71627;DHT22;59475;52.464;13.590;2023-06-10T07:33:12;26.34;52.11
71627;DHT22;59475;52.464;13.590;2023-06-10T07:35:37;26.00;52.08
71627;DHT22;59475;52.464;13.590;2023-06-10T07:38:03;25.88;53.21
71627;DHT22;59475;52.464;13.590;2023-06-10T07:40:28;25.93;53.08
71627;DHT22;59475;52.464;13.590;2023-06-10T07:42:55;25.65;53.78
71627;DHT22;59475;52.464;13.590;2023-06-10T07:45:20;25.72;53.68
71627;DHT22;59475;52.464;13.590;2023-06-10T07:47:46;25.86;53.95
71627;DHT22;59475;52.464;13.590;2023-06-10T07:50:11;26.45;52.44
71627;DHT22;59475;52.464;13.590;2023-06-10T07:52:36;26.89;51.36
71627;DHT22;59475;52.464;13.590;2023-06-10T07:55:02;26.58;51.60
71627;DHT22;59475;52.464;13.590;2023-06-10T07:57:27;26.50;51.91
71627;DHT22;59475;52.464;13.590;2023-06-10T07:59:53;26.12;52.66
71627;DHT22;59475;52.464;13.590;2023-06-10T08:02:20;25.79;53.61
71627;DHT22;59475;52.464;13.590;2023-06-10T08:04:45;25.76;54.20
71627;DHT22;59475;52.464;13.590;2023-06-10T08:07:11;25.65;54.40
71627;DHT22;59475;52.464;13.590;2023-06-10T08:09:36;25.57;53.86
71627;DHT22;59475;52.464;13.590;2023-06-10T08:12:01;25.55;54.01
71627;DHT22;59475;52.464;13.590;2023-06-10T08:14:27;25.64;54.22
71627;DHT22;59475;52.464;13.590;2023-06-10T08:16:52;26.13;53.54
71627;DHT22;59475;52.464;13.590;2023-06-10T08:19:18;26.67;51.46
71627;DHT22;59475;52.464;13.590;2023-06-10T08:21:43;27.44;50.33
71627;DHT22;59475;52.464;13.590;2023-06-10T08:24:10;27.99;48.98
71627;DHT22;59475;52.464;13.590;2023-06-10T08:26:35;27.62;49.40
71627;DHT22;59475;52.464;13.590;2023-06-10T08:29:01;27.51;49.70
71627;DHT22;59475;52.464;13.590;2023-06-10T08:31:26;27.85;49.15
71627;DHT22;59475;52.464;13.590;2023-06-10T08:33:51;27.72;49.72
71627;DHT22;59475;52.464;13.590;2023-06-10T08:36:17;28.18;49.11
71627;DHT22;59475;52.464;13.590;2023-06-10T08:38:42;28.20;47.58
71627;DHT22;59475;52.464;13.590;2023-06-10T08:41:09;28.56;47.74
71627;DHT22;59475;52.464;13.590;2023-06-10T08:46:37;28.68;47.57
71627;DHT22;59475;52.464;13.590;2023-06-10T08:49:06;29.12;46.40
71627;DHT22;59475;52.464;13.590;2023-06-10T08:51:35;29.16;46.10
71627;DHT22;59475;52.464;13.590;2023-06-10T08:54:05;29.30;45.47
71627;DHT22;59475;52.464;13.590;2023-06-10T08:56:38;29.52;45.13
71627;DHT22;59475;52.464;13.590;2023-06-10T08:59:05;29.84;44.62
71627;DHT22;59475;52.464;13.590;2023-06-10T09:01:30;30.11;43.84
71627;DHT22;59475;52.464;13.590;2023-06-10T09:03:57;30.21;43.58
71627;DHT22;59475;52.464;13.590;2023-06-10T09:06:25;30.36;42.53
71627;DHT22;59475;52.464;13.590;2023-06-10T09:08:50;30.48;42.30
71627;DHT22;59475;52.464;13.590;2023-06-10T09:11:16;29.93;42.59
71627;DHT22;59475;52.464;13.590;2023-06-10T09:13:41;29.74;43.08
71627;DHT22;59475;52.464;13.590;2023-06-10T09:16:07;29.76;42.94
71627;DHT22;59475;52.464;13.590;2023-06-10T09:18:32;30.32;42.51
71627;DHT22;59475;52.464;13.590;2023-06-10T09:20:59;31.11;41.02
71627;DHT22;59475;52.464;13.590;2023-06-10T09:23:25;30.70;41.14
71627;DHT22;59475;52.464;13.590;2023-06-10T09:25:57;30.86;41.12
71627;DHT22;59475;52.464;13.590;2023-06-10T09:28:23;31.21;40.48
71627;DHT22;59475;52.464;13.590;2023-06-10T09:30:49;31.82;39.58
71627;DHT22;59475;52.464;13.590;2023-06-10T09:33:15;31.45;39.37
71627;DHT22;59475;52.464;13.590;2023-06-10T09:35:48;31.03;39.82
71627;DHT22;59475;52.464;13.590;2023-06-10T09:38:23;30.45;41.40
71627;DHT22;59475;52.464;13.590;2023-06-10T09:40:54;29.76;42.19
71627;DHT22;59475;52.464;13.590;2023-06-10T09:43:20;29.45;42.67
71627;DHT22;59475;52.464;13.590;2023-06-10T09:45:50;29.74;42.33
71627;DHT22;59475;52.464;13.590;2023-06-10T09:48:18;29.84;41.78
71627;DHT22;59475;52.464;13.590;2023-06-10T09:50:44;29.35;42.29
71627;DHT22;59475;52.464;13.590;2023-06-10T09:53:10;29.60;42.05
71627;DHT22;59475;52.464;13.590;2023-06-10T09:55:40;29.70;41.55
71627;DHT22;59475;52.464;13.590;2023-06-10T09:58:06;30.10;42.46
71627;DHT22;59475;52.464;13.590;2023-06-10T10:00:32;29.66;43.79
71627;DHT22;59475;52.464;13.590;2023-06-10T10:02:59;28.88;44.41
71627;DHT22;59475;52.464;13.590;2023-06-10T10:05:26;27.95;45.55
71627;DHT22;59475;52.464;13.590;2023-06-10T10:07:52;27.05;47.35
71627;DHT22;59475;52.464;13.590;2023-06-10T10:10:21;26.58;48.25
71627;DHT22;59475;52.464;13.590;2023-06-10T10:12:48;26.48;48.53
71627;DHT22;59475;52.464;13.590;2023-06-10T10:15:16;27.30;47.04
71627;DHT22;59475;52.464;13.590;2023-06-10T10:18:01;27.44;45.55
71627;DHT22;59475;52.464;13.590;2023-06-10T10:20:31;27.30;46.36
71627;DHT22;59475;52.464;13.590;2023-06-10T10:22:58;27.43;45.91
71627;DHT22;59475;52.464;13.590;2023-06-10T10:25:28;28.36;45.03
71627;DHT22;59475;52.464;13.590;2023-06-10T10:28:00;29.00;42.22
71627;DHT22;59475;52.464;13.590;2023-06-10T10:30:30;29.57;42.80
71627;DHT22;59475;52.464;13.590;2023-06-10T10:35:35;29.45;41.24
71627;DHT22;59475;52.464;13.590;2023-06-10T10:38:02;29.81;40.96
71627;DHT22;59475;52.464;13.590;2023-06-10T10:40:28;28.71;41.62
71627;DHT22;59475;52.464;13.590;2023-06-10T10:42:56;28.01;42.74
71627;DHT22;59475;52.464;13.590;2023-06-10T10:45:21;27.67;43.75
71627;DHT22;59475;52.464;13.590;2023-06-10T10:47:52;28.67;42.56
71627;DHT22;59475;52.464;13.590;2023-06-10T10:50:19;29.69;41.09
71627;DHT22;59475;52.464;13.590;2023-06-10T10:52:54;29.63;39.34
71627;DHT22;59475;52.464;13.590;2023-06-10T10:55:24;29.53;39.63
71627;DHT22;59475;52.464;13.590;2023-06-10T10:58:07;28.92;40.44
71627;DHT22;59475;52.464;13.590;2023-06-10T11:00:37;28.98;40.94
71627;DHT22;59475;52.464;13.590;2023-06-10T11:03:12;29.36;39.63
71627;DHT22;59475;52.464;13.590;2023-06-10T11:08:10;29.26;39.94
71627;DHT22;59475;52.464;13.590;2023-06-10T11:10:40;29.55;39.91
71627;DHT22;59475;52.464;13.590;2023-06-10T11:13:13;30.01;39.20
71627;DHT22;59475;52.464;13.590;2023-06-10T11:15:47;29.87;39.24
71627;DHT22;59475;52.464;13.590;2023-06-10T11:23:44;29.80;39.31
71627;DHT22;59475;52.464;13.590;2023-06-10T11:31:23;29.14;40.09
71627;DHT22;59475;52.464;13.590;2023-06-10T11:36:18;29.32;40.55
71627;DHT22;59475;52.464;13.590;2023-06-10T11:38:44;29.07;40.14
71627;DHT22;59475;52.464;13.590;2023-06-10T11:41:11;29.18;39.27
71627;DHT22;59475;52.464;13.590;2023-06-10T11:43:37;29.00;39.47
71627;DHT22;59475;52.464;13.590;2023-06-10T11:46:02;29.33;38.32
71627;DHT22;59475;52.464;13.590;2023-06-10T11:48:30;29.46;38.14
71627;DHT22;59475;52.464;13.590;2023-06-10T11:50:56;30.14;38.04
71627;DHT22;59475;52.464;13.590;2023-06-10T11:53:21;30.04;38.43
71627;DHT22;59475;52.464;13.590;2023-06-10T11:55:49;29.94;39.43
71627;DHT22;59475;52.464;13.590;2023-06-10T11:58:20;29.21;40.84
71627;DHT22;59475;52.464;13.590;2023-06-10T12:00:57;29.15;42.30
71627;DHT22;59475;52.464;13.590;2023-06-10T12:03:23;29.85;40.71
71627;DHT22;59475;52.464;13.590;2023-06-10T12:06:00;30.36;40.65
71627;DHT22;59475;52.464;13.590;2023-06-10T12:08:27;30.58;40.41
71627;DHT22;59475;52.464;13.590;2023-06-10T12:10:53;30.35;40.75
71627;DHT22;59475;52.464;13.590;2023-06-10T12:13:19;29.77;41.56
71627;DHT22;59475;52.464;13.590;2023-06-10T12:15:45;30.03;41.71
71627;DHT22;59475;52.464;13.590;2023-06-10T12:18:23;30.39;41.14
71627;DHT22;59475;52.464;13.590;2023-06-10T12:20:49;30.39;41.09
71627;DHT22;59475;52.464;13.590;2023-06-10T12:23:17;30.45;41.02
71627;DHT22;59475;52.464;13.590;2023-06-10T12:25:50;29.77;42.07
71627;DHT22;59475;52.464;13.590;2023-06-10T12:28:17;30.24;42.00
71627;DHT22;59475;52.464;13.590;2023-06-10T12:30:44;30.11;40.36
71627;DHT22;59475;52.464;13.590;2023-06-10T12:33:17;30.17;40.35
71627;DHT22;59475;52.464;13.590;2023-06-10T12:35:50;30.49;39.45
71627;DHT22;59475;52.464;13.590;2023-06-10T12:38:21;30.65;38.61
71627;DHT22;59475;52.464;13.590;2023-06-10T12:40:47;30.70;38.37
71627;DHT22;59475;52.464;13.590;2023-06-10T12:43:13;30.51;38.87
71627;DHT22;59475;52.464;13.590;2023-06-10T12:45:44;30.20;40.71
71627;DHT22;59475;52.464;13.590;2023-06-10T12:48:12;29.97;40.83
71627;DHT22;59475;52.464;13.590;2023-06-10T12:50:40;29.88;41.03
71627;DHT22;59475;52.464;13.590;2023-06-10T12:53:05;29.63;41.20
71627;DHT22;59475;52.464;13.590;2023-06-10T12:55:32;29.47;41.83
71627;DHT22;59475;52.464;13.590;2023-06-10T12:57:58;29.36;42.60
71627;DHT22;59475;52.464;13.590;2023-06-10T13:00:24;29.42;42.80
71627;DHT22;59475;52.464;13.590;2023-06-10T13:03:00;29.35;42.92
71627;DHT22;59475;52.464;13.590;2023-06-10T13:05:26;29.26;42.95
71627;DHT22;59475;52.464;13.590;2023-06-10T13:07:52;29.12;43.44
71627;DHT22;59475;52.464;13.590;2023-06-10T13:10:18;29.05;42.39
71627;DHT22;59475;52.464;13.590;2023-06-10T13:12:44;28.78;40.98
71627;DHT22;59475;52.464;13.590;2023-06-10T13:15:10;28.71;41.27
71627;DHT22;59475;52.464;13.590;2023-06-10T13:17:36;28.61;42.33
71627;DHT22;59475;52.464;13.590;2023-06-10T13:20:03;28.61;42.73
71627;DHT22;59475;52.464;13.590;2023-06-10T13:22:31;28.59;43.19
71627;DHT22;59475;52.464;13.590;2023-06-10T13:24:58;28.78;43.38
71627;DHT22;59475;52.464;13.590;2023-06-10T13:27:24;28.95;42.07
71627;DHT22;59475;52.464;13.590;2023-06-10T13:29:50;28.80;41.56
71627;DHT22;59475;52.464;13.590;2023-06-10T13:32:15;28.91;41.45
71627;DHT22;59475;52.464;13.590;2023-06-10T13:34:41;29.11;40.93
71627;DHT22;59475;52.464;13.590;2023-06-10T13:37:06;29.28;39.58
71627;DHT22;59475;52.464;13.590;2023-06-10T13:39:32;29.53;39.18
71627;DHT22;59475;52.464;13.590;2023-06-10T13:41:57;29.19;38.22
71627;DHT22;59475;52.464;13.590;2023-06-10T13:44:24;29.26;38.67
71627;DHT22;59475;52.464;13.590;2023-06-10T13:46:49;29.29;38.66
71627;DHT22;59475;52.464;13.590;2023-06-10T13:49:14;29.40;38.12
71627;DHT22;59475;52.464;13.590;2023-06-10T13:51:40;29.47;37.28
71627;DHT22;59475;52.464;13.590;2023-06-10T13:54:05;29.52;37.69
71627;DHT22;59475;52.464;13.590;2023-06-10T13:56:31;29.47;37.68
71627;DHT22;59475;52.464;13.590;2023-06-10T13:58:56;29.65;38.58
71627;DHT22;59475;52.464;13.590;2023-06-10T14:01:21;29.70;39.05
71627;DHT22;59475;52.464;13.590;2023-06-10T14:03:47;29.45;40.67
71627;DHT22;59475;52.464;13.590;2023-06-10T14:06:12;29.09;41.78
71627;DHT22;59475;52.464;13.590;2023-06-10T14:08:40;28.65;42.55
71627;DHT22;59475;52.464;13.590;2023-06-10T14:11:06;28.64;41.66
71627;DHT22;59475;52.464;13.590;2023-06-10T14:13:31;28.64;41.63
71627;DHT22;59475;52.464;13.590;2023-06-10T14:15:57;28.65;42.43
71627;DHT22;59475;52.464;13.590;2023-06-10T14:18:27;28.60;41.33
71627;DHT22;59475;52.464;13.590;2023-06-10T14:20:54;28.63;41.41
71627;DHT22;59475;52.464;13.590;2023-06-10T14:23:19;28.61;42.49
71627;DHT22;59475;52.464;13.590;2023-06-10T14:25:46;28.74;42.86
71627;DHT22;59475;52.464;13.590;2023-06-10T14:28:11;28.86;42.89
71627;DHT22;59475;52.464;13.590;2023-06-10T14:30:37;28.98;43.21
71627;DHT22;59475;52.464;13.590;2023-06-10T14:33:02;28.75;41.95
71627;DHT22;59475;52.464;13.590;2023-06-10T14:35:28;28.57;41.46
71627;DHT22;59475;52.464;13.590;2023-06-10T14:37:53;28.63;40.50
71627;DHT22;59475;52.464;13.590;2023-06-10T14:40:19;28.75;41.23
71627;DHT22;59475;52.464;13.590;2023-06-10T14:42:46;28.71;41.23
71627;DHT22;59475;52.464;13.590;2023-06-10T14:45:13;28.59;40.83
71627;DHT22;59475;52.464;13.590;2023-06-10T14:47:41;28.71;41.95
71627;DHT22;59475;52.464;13.590;2023-06-10T14:50:07;28.80;39.76
71627;DHT22;59475;52.464;13.590;2023-06-10T14:52:34;28.75;39.20
71627;DHT22;59475;52.464;13.590;2023-06-10T14:55:00;28.86;39.72
71627;DHT22;59475;52.464;13.590;2023-06-10T14:57:25;28.95;39.13
71627;DHT22;59475;52.464;13.590;2023-06-10T14:59:50;28.90;39.22
71627;DHT22;59475;52.464;13.590;2023-06-10T15:02:16;28.92;38.50
71627;DHT22;59475;52.464;13.590;2023-06-10T15:04:41;29.09;38.51
71627;DHT22;59475;52.464;13.590;2023-06-10T15:07:07;29.23;37.45
71627;DHT22;59475;52.464;13.590;2023-06-10T15:09:33;29.36;36.42
71627;DHT22;59475;52.464;13.590;2023-06-10T15:11:59;29.42;36.67
71627;DHT22;59475;52.464;13.590;2023-06-10T15:14:28;29.39;35.64
71627;DHT22;59475;52.464;13.590;2023-06-10T15:16:53;29.42;35.59
71627;DHT22;59475;52.464;13.590;2023-06-10T15:19:21;29.42;35.64
71627;DHT22;59475;52.464;13.590;2023-06-10T15:21:46;29.38;35.49
71627;DHT22;59475;52.464;13.590;2023-06-10T15:24:12;29.32;35.71
71627;DHT22;59475;52.464;13.590;2023-06-10T15:26:37;29.35;35.65
71627;DHT22;59475;52.464;13.590;2023-06-10T15:29:02;29.12;35.20
71627;DHT22;59475;52.464;13.590;2023-06-10T15:31:30;29.08;35.25
71627;DHT22;59475;52.464;13.590;2023-06-10T15:33:57;29.12;35.33
71627;DHT22;59475;52.464;13.590;2023-06-10T15:36:23;29.01;34.42
71627;DHT22;59475;52.464;13.590;2023-06-10T15:38:48;29.08;34.67
71627;DHT22;59475;52.464;13.590;2023-06-10T15:41:14;29.04;34.05
71627;DHT22;59475;52.464;13.590;2023-06-10T15:43:39;29.12;34.73